KCEF/CEF METAR and TAF weather

Enter ICAO airport designator
Station Type Date Time Source
KCEF METAR 2020/06/01 14:56 UTC NOAA

KCEF 011456Z 00000KT 10SM BKN060 BKN075 15/01 A3017 RMK AO2A SLP223 T01450007 58011


Station Type Date Time Source
KCEF Decoded METAR 2020/06/01 14:56 UTC NOAA

Chicopee Falls / Westover Air Force Base, MA, United States (KCEF) 42-12N 072-32W 75M
Jun 01, 2020 - 10:56 AM EDT / 2020.06.01 1456 UTC
Wind: Calm:0
Visibility: 10 mile(s):0
Sky conditions: mostly cloudy
Temperature: 58.1 F (14.5 C)
Dew Point: 33.3 F (0.7 C)
Relative Humidity: 38%
Pressure (altimeter): 30.17 in. Hg (1021 hPa)
Pressure tendency: 0.03 inches (1.1 hPa) lower than three hours ago
ob: KCEF 011456Z 00000KT 10SM BKN060 BKN075 15/01 A3017 RMK AO2A SLP223 T01450007 58011
cycle: 15

Station Type Date Time Source
KCEF TAF 2020/06/01 13:06 UTC NOAA

TAF TAF KCEF 011300Z 0113/0219 32009KT 9999 FEW065 SCT200 QNH3018INS
BECMG 0114/0115 31010G15KT 9999 FEW070 SCT200 QNH3014INS
BECMG 0116/0117 31012G18KT 9999 BKN070 BKN120 510004 QNH3005INS
TEMPO 0117/0124 32015G25KT 520004
BECMG 0200/0201 29009KT 9999 BKN050 BKN250 QNH3003INS
TEMPO 0204/0206 -SHRA 610606
BECMG 0207/0208 VRB06KT 9999 FEW050 BKN130 510303 QNH2997INS
BECMG 0213/0214 25010G15KT 9999 BKN070 BKN100 QNH2988INS
TEMPO 0214/0217 9000 -SHRA BKN050 610709 TX20/0120Z TN07/0210Z

Example: see airport list